sensor_id;sensor_type;location;lat;lon;timestamp;P1;durP1;ratioP1;P2;durP2;ratioP2
51174;SDS011;37240;50.104;20.010;2023-02-28T00:04:52;43.05;;;13.23;;
51174;SDS011;37240;50.104;20.010;2023-02-28T00:09:53;42.47;;;13.95;;
51174;SDS011;37240;50.104;20.010;2023-02-28T00:14:53;41.50;;;14.05;;
51174;SDS011;37240;50.104;20.010;2023-02-28T00:19:54;42.05;;;13.90;;
51174;SDS011;37240;50.104;20.010;2023-02-28T00:24:54;41.88;;;14.48;;
51174;SDS011;37240;50.104;20.010;2023-02-28T00:29:55;38.30;;;12.15;;
51174;SDS011;37240;50.104;20.010;2023-02-28T00:34:56;31.67;;;12.32;;
51174;SDS011;37240;50.104;20.010;2023-02-28T00:39:56;36.95;;;12.68;;
51174;SDS011;37240;50.104;20.010;2023-02-28T00:44:57;34.72;;;12.75;;
51174;SDS011;37240;50.104;20.010;2023-02-28T00:49:57;40.17;;;13.05;;
51174;SDS011;37240;50.104;20.010;2023-02-28T00:54:58;47.45;;;15.02;;
51174;SDS011;37240;50.104;20.010;2023-02-28T00:59:58;44.50;;;14.10;;
51174;SDS011;37240;50.104;20.010;2023-02-28T01:04:59;43.35;;;13.38;;
51174;SDS011;37240;50.104;20.010;2023-02-28T01:10:00;38.38;;;13.48;;
51174;SDS011;37240;50.104;20.010;2023-02-28T01:15:00;40.97;;;15.10;;
51174;SDS011;37240;50.104;20.010;2023-02-28T01:20:01;44.22;;;13.63;;
51174;SDS011;37240;50.104;20.010;2023-02-28T01:25:02;43.17;;;14.43;;
51174;SDS011;37240;50.104;20.010;2023-02-28T01:30:03;42.42;;;14.68;;
51174;SDS011;37240;50.104;20.010;2023-02-28T01:35:03;46.75;;;16.27;;
51174;SDS011;37240;50.104;20.010;2023-02-28T01:40:05;50.28;;;15.93;;
51174;SDS011;37240;50.104;20.010;2023-02-28T01:50:30;60.45;;;17.95;;
51174;SDS011;37240;50.104;20.010;2023-02-28T01:55:34;58.50;;;18.08;;
51174;SDS011;37240;50.104;20.010;2023-02-28T02:00:35;61.45;;;19.10;;
51174;SDS011;37240;50.104;20.010;2023-02-28T02:05:36;70.10;;;18.95;;
51174;SDS011;37240;50.104;20.010;2023-02-28T02:26:28;56.35;;;18.52;;
51174;SDS011;37240;50.104;20.010;2023-02-28T02:41:59;44.78;;;17.23;;
51174;SDS011;37240;50.104;20.010;2023-02-28T02:47:06;53.55;;;17.13;;
51174;SDS011;37240;50.104;20.010;2023-02-28T02:52:10;49.60;;;17.70;;
51174;SDS011;37240;50.104;20.010;2023-02-28T02:57:15;42.75;;;15.95;;
51174;SDS011;37240;50.104;20.010;2023-02-28T03:02:21;46.30;;;16.30;;
51174;SDS011;37240;50.104;20.010;2023-02-28T03:07:22;51.75;;;15.20;;
51174;SDS011;37240;50.104;20.010;2023-02-28T03:12:23;44.85;;;16.80;;
51174;SDS011;37240;50.104;20.010;2023-02-28T03:23:12;72.95;;;23.55;;
51174;SDS011;37240;50.104;20.010;2023-02-28T03:33:51;56.67;;;16.70;;
51174;SDS011;37240;50.104;20.010;2023-02-28T03:38:59;51.90;;;17.65;;
51174;SDS011;37240;50.104;20.010;2023-02-28T03:44:12;37.30;;;14.35;;
51174;SDS011;37240;50.104;20.010;2023-02-28T03:49:17;54.95;;;18.70;;
51174;SDS011;37240;50.104;20.010;2023-02-28T03:54:23;47.70;;;17.67;;
51174;SDS011;37240;50.104;20.010;2023-02-28T03:59:52;57.45;;;17.77;;
51174;SDS011;37240;50.104;20.010;2023-02-28T04:04:56;49.85;;;17.40;;
51174;SDS011;37240;50.104;20.010;2023-02-28T04:09:57;49.40;;;16.52;;
51174;SDS011;37240;50.104;20.010;2023-02-28T04:14:58;51.17;;;17.73;;
51174;SDS011;37240;50.104;20.010;2023-02-28T04:19:59;52.85;;;17.70;;
51174;SDS011;37240;50.104;20.010;2023-02-28T04:24:59;51.22;;;17.33;;
51174;SDS011;37240;50.104;20.010;2023-02-28T04:30:00;46.78;;;17.67;;
51174;SDS011;37240;50.104;20.010;2023-02-28T04:35:00;64.13;;;19.10;;
51174;SDS011;37240;50.104;20.010;2023-02-28T04:40:01;50.90;;;17.55;;
51174;SDS011;37240;50.104;20.010;2023-02-28T04:45:02;48.22;;;18.30;;
51174;SDS011;37240;50.104;20.010;2023-02-28T04:50:04;45.97;;;17.13;;
51174;SDS011;37240;50.104;20.010;2023-02-28T04:55:05;43.67;;;16.58;;
51174;SDS011;37240;50.104;20.010;2023-02-28T05:00:06;53.40;;;18.20;;
51174;SDS011;37240;50.104;20.010;2023-02-28T05:05:07;55.63;;;19.63;;
51174;SDS011;37240;50.104;20.010;2023-02-28T05:10:08;48.13;;;17.02;;
51174;SDS011;37240;50.104;20.010;2023-02-28T05:15:12;43.42;;;16.77;;
51174;SDS011;37240;50.104;20.010;2023-02-28T05:20:13;45.13;;;16.33;;
51174;SDS011;37240;50.104;20.010;2023-02-28T05:25:15;50.90;;;17.85;;
51174;SDS011;37240;50.104;20.010;2023-02-28T05:30:18;48.85;;;17.35;;
51174;SDS011;37240;50.104;20.010;2023-02-28T05:35:19;49.67;;;17.27;;
51174;SDS011;37240;50.104;20.010;2023-02-28T05:40:20;45.35;;;17.65;;
51174;SDS011;37240;50.104;20.010;2023-02-28T05:45:20;40.08;;;16.73;;
51174;SDS011;37240;50.104;20.010;2023-02-28T05:50:21;43.10;;;16.23;;
51174;SDS011;37240;50.104;20.010;2023-02-28T05:55:22;50.45;;;16.77;;
51174;SDS011;37240;50.104;20.010;2023-02-28T06:00:22;45.25;;;17.02;;
51174;SDS011;37240;50.104;20.010;2023-02-28T06:05:23;52.15;;;15.90;;
51174;SDS011;37240;50.104;20.010;2023-02-28T06:10:24;44.63;;;18.10;;
51174;SDS011;37240;50.104;20.010;2023-02-28T06:15:24;61.53;;;18.35;;
51174;SDS011;37240;50.104;20.010;2023-02-28T06:20:25;53.10;;;16.85;;
51174;SDS011;37240;50.104;20.010;2023-02-28T06:25:27;55.88;;;17.67;;
51174;SDS011;37240;50.104;20.010;2023-02-28T06:30:27;52.83;;;19.38;;
51174;SDS011;37240;50.104;20.010;2023-02-28T06:35:28;52.50;;;18.30;;
51174;SDS011;37240;50.104;20.010;2023-02-28T06:40:29;59.90;;;20.25;;
51174;SDS011;37240;50.104;20.010;2023-02-28T06:45:29;76.63;;;25.23;;
51174;SDS011;37240;50.104;20.010;2023-02-28T06:50:30;68.28;;;23.13;;
51174;SDS011;37240;50.104;20.010;2023-02-28T06:55:30;58.50;;;20.33;;
51174;SDS011;37240;50.104;20.010;2023-02-28T07:00:31;54.72;;;20.33;;
51174;SDS011;37240;50.104;20.010;2023-02-28T07:05:33;60.05;;;21.98;;
51174;SDS011;37240;50.104;20.010;2023-02-28T07:10:38;57.85;;;19.90;;
51174;SDS011;37240;50.104;20.010;2023-02-28T07:15:39;54.15;;;19.67;;
51174;SDS011;37240;50.104;20.010;2023-02-28T07:20:40;51.72;;;18.77;;
51174;SDS011;37240;50.104;20.010;2023-02-28T07:25:40;50.92;;;18.15;;
51174;SDS011;37240;50.104;20.010;2023-02-28T07:30:41;43.67;;;18.65;;
51174;SDS011;37240;50.104;20.010;2023-02-28T07:35:42;49.67;;;17.98;;
51174;SDS011;37240;50.104;20.010;2023-02-28T07:40:42;41.20;;;15.15;;
51174;SDS011;37240;50.104;20.010;2023-02-28T07:45:43;40.17;;;14.85;;
51174;SDS011;37240;50.104;20.010;2023-02-28T07:50:44;40.53;;;15.40;;
51174;SDS011;37240;50.104;20.010;2023-02-28T07:55:44;32.60;;;14.18;;
51174;SDS011;37240;50.104;20.010;2023-02-28T08:00:45;29.80;;;12.23;;
51174;SDS011;37240;50.104;20.010;2023-02-28T08:05:45;32.53;;;12.40;;
51174;SDS011;37240;50.104;20.010;2023-02-28T08:10:46;28.83;;;12.35;;
51174;SDS011;37240;50.104;20.010;2023-02-28T08:15:47;24.00;;;10.40;;
51174;SDS011;37240;50.104;20.010;2023-02-28T08:20:47;26.10;;;10.57;;
51174;SDS011;37240;50.104;20.010;2023-02-28T08:25:57;22.23;;;9.70;;
51174;SDS011;37240;50.104;20.010;2023-02-28T08:30:57;22.17;;;9.38;;
51174;SDS011;37240;50.104;20.010;2023-02-28T08:35:58;17.92;;;8.55;;
51174;SDS011;37240;50.104;20.010;2023-02-28T08:40:59;14.60;;;7.53;;
51174;SDS011;37240;50.104;20.010;2023-02-28T08:46:01;18.48;;;7.88;;
51174;SDS011;37240;50.104;20.010;2023-02-28T08:51:06;17.55;;;7.88;;
51174;SDS011;37240;50.104;20.010;2023-02-28T08:56:10;21.85;;;8.13;;
51174;SDS011;37240;50.104;20.010;2023-02-28T09:01:21;12.40;;;6.55;;
51174;SDS011;37240;50.104;20.010;2023-02-28T09:06:27;13.50;;;7.25;;
51174;SDS011;37240;50.104;20.010;2023-02-28T09:11:28;15.40;;;7.57;;
51174;SDS011;37240;50.104;20.010;2023-02-28T09:16:29;11.35;;;6.05;;
51174;SDS011;37240;50.104;20.010;2023-02-28T09:21:31;21.33;;;7.82;;
51174;SDS011;37240;50.104;20.010;2023-02-28T09:26:32;17.50;;;6.63;;
51174;SDS011;37240;50.104;20.010;2023-02-28T09:31:33;14.55;;;6.72;;
51174;SDS011;37240;50.104;20.010;2023-02-28T09:36:34;18.52;;;7.45;;
51174;SDS011;37240;50.104;20.010;2023-02-28T09:41:37;18.38;;;8.15;;
51174;SDS011;37240;50.104;20.010;2023-02-28T09:46:40;19.38;;;9.10;;
51174;SDS011;37240;50.104;20.010;2023-02-28T09:51:50;16.25;;;7.70;;
51174;SDS011;37240;50.104;20.010;2023-02-28T09:56:58;22.67;;;9.15;;
51174;SDS011;37240;50.104;20.010;2023-02-28T10:12:38;34.50;;;9.18;;
51174;SDS011;37240;50.104;20.010;2023-02-28T10:17:45;15.25;;;8.25;;
51174;SDS011;37240;50.104;20.010;2023-02-28T10:22:52;13.47;;;6.87;;
51174;SDS011;37240;50.104;20.010;2023-02-28T10:28:13;14.65;;;7.50;;
51174;SDS011;37240;50.104;20.010;2023-02-28T10:33:17;13.82;;;7.25;;
51174;SDS011;37240;50.104;20.010;2023-02-28T10:38:24;15.63;;;7.82;;
51174;SDS011;37240;50.104;20.010;2023-02-28T10:43:32;15.60;;;6.85;;
51174;SDS011;37240;50.104;20.010;2023-02-28T10:48:37;16.95;;;6.28;;
51174;SDS011;37240;50.104;20.010;2023-02-28T11:03:53;23.55;;;7.88;;
51174;SDS011;37240;50.104;20.010;2023-02-28T11:08:55;17.60;;;7.00;;
51174;SDS011;37240;50.104;20.010;2023-02-28T11:14:02;22.88;;;8.27;;
51174;SDS011;37240;50.104;20.010;2023-02-28T11:19:06;14.88;;;6.45;;
51174;SDS011;37240;50.104;20.010;2023-02-28T11:29:32;15.52;;;7.72;;
51174;SDS011;37240;50.104;20.010;2023-02-28T11:34:34;18.90;;;8.82;;
51174;SDS011;37240;50.104;20.010;2023-02-28T11:39:36;19.20;;;8.23;;
51174;SDS011;37240;50.104;20.010;2023-02-28T11:50:07;16.30;;;8.00;;
51174;SDS011;37240;50.104;20.010;2023-02-28T11:55:27;34.92;;;17.27;;
51174;SDS011;37240;50.104;20.010;2023-02-28T12:00:42;19.90;;;9.15;;
51174;SDS011;37240;50.104;20.010;2023-02-28T12:22:18;17.63;;;9.38;;
51174;SDS011;37240;50.104;20.010;2023-02-28T12:27:28;13.32;;;7.03;;
51174;SDS011;37240;50.104;20.010;2023-02-28T12:32:35;17.15;;;8.50;;
51174;SDS011;37240;50.104;20.010;2023-02-28T12:37:52;40.63;;;14.30;;
51174;SDS011;37240;50.104;20.010;2023-02-28T12:42:59;19.42;;;9.43;;
51174;SDS011;37240;50.104;20.010;2023-02-28T12:48:04;21.58;;;7.18;;
51174;SDS011;37240;50.104;20.010;2023-02-28T12:53:09;17.33;;;7.55;;
51174;SDS011;37240;50.104;20.010;2023-02-28T12:58:27;16.02;;;8.18;;
51174;SDS011;37240;50.104;20.010;2023-02-28T13:14:59;20.35;;;8.98;;
51174;SDS011;37240;50.104;20.010;2023-02-28T13:19:38;18.58;;;7.28;;
51174;SDS011;37240;50.104;20.010;2023-02-28T13:24:56;12.88;;;7.20;;
51174;SDS011;37240;50.104;20.010;2023-02-28T13:29:56;20.00;;;8.88;;
51174;SDS011;37240;50.104;20.010;2023-02-28T13:39:59;19.90;;;9.55;;
51174;SDS011;37240;50.104;20.010;2023-02-28T13:45:27;20.80;;;8.02;;
51174;SDS011;37240;50.104;20.010;2023-02-28T13:50:30;17.48;;;8.68;;
51174;SDS011;37240;50.104;20.010;2023-02-28T14:06:48;27.60;;;10.67;;
51174;SDS011;37240;50.104;20.010;2023-02-28T14:11:51;14.05;;;8.77;;
51174;SDS011;37240;50.104;20.010;2023-02-28T14:16:52;22.05;;;8.05;;
51174;SDS011;37240;50.104;20.010;2023-02-28T14:27:35;28.33;;;9.85;;
51174;SDS011;37240;50.104;20.010;2023-02-28T14:38:25;15.93;;;8.45;;
51174;SDS011;37240;50.104;20.010;2023-02-28T14:43:50;17.27;;;9.23;;
51174;SDS011;37240;50.104;20.010;2023-02-28T14:49:00;23.17;;;9.60;;
51174;SDS011;37240;50.104;20.010;2023-02-28T14:54:03;20.55;;;9.93;;
51174;SDS011;37240;50.104;20.010;2023-02-28T14:59:05;48.15;;;20.48;;
51174;SDS011;37240;50.104;20.010;2023-02-28T15:04:25;26.20;;;12.07;;
51174;SDS011;37240;50.104;20.010;2023-02-28T15:09:27;18.30;;;9.73;;
51174;SDS011;37240;50.104;20.010;2023-02-28T15:14:27;26.75;;;10.13;;
51174;SDS011;37240;50.104;20.010;2023-02-28T15:19:34;22.10;;;10.90;;
51174;SDS011;37240;50.104;20.010;2023-02-28T15:24:50;21.63;;;10.75;;
51174;SDS011;37240;50.104;20.010;2023-02-28T15:30:05;18.60;;;10.18;;
51174;SDS011;37240;50.104;20.010;2023-02-28T15:35:19;24.90;;;9.77;;
51174;SDS011;37240;50.104;20.010;2023-02-28T15:40:31;19.40;;;9.05;;
51174;SDS011;37240;50.104;20.010;2023-02-28T15:45:38;22.67;;;9.82;;
51174;SDS011;37240;50.104;20.010;2023-02-28T15:50:46;28.75;;;10.40;;
51174;SDS011;37240;50.104;20.010;2023-02-28T15:55:59;66.43;;;24.73;;
51174;SDS011;37240;50.104;20.010;2023-02-28T16:01:07;74.75;;;26.70;;
51174;SDS011;37240;50.104;20.010;2023-02-28T16:12:05;21.70;;;10.25;;
51174;SDS011;37240;50.104;20.010;2023-02-28T16:17:22;24.73;;;9.98;;
51174;SDS011;37240;50.104;20.010;2023-02-28T16:22:25;20.00;;;9.93;;
51174;SDS011;37240;50.104;20.010;2023-02-28T16:27:28;25.52;;;10.75;;
51174;SDS011;37240;50.104;20.010;2023-02-28T16:32:31;35.50;;;14.65;;
51174;SDS011;37240;50.104;20.010;2023-02-28T16:37:34;133.13;;;50.72;;
51174;SDS011;37240;50.104;20.010;2023-02-28T16:42:35;75.28;;;26.00;;
51174;SDS011;37240;50.104;20.010;2023-02-28T16:47:38;46.88;;;17.85;;
51174;SDS011;37240;50.104;20.010;2023-02-28T16:52:38;51.83;;;16.73;;
51174;SDS011;37240;50.104;20.010;2023-02-28T16:57:39;51.45;;;17.05;;
51174;SDS011;37240;50.104;20.010;2023-02-28T17:02:40;46.25;;;18.10;;
51174;SDS011;37240;50.104;20.010;2023-02-28T17:07:41;49.40;;;19.65;;
51174;SDS011;37240;50.104;20.010;2023-02-28T17:12:43;59.38;;;19.55;;
51174;SDS011;37240;50.104;20.010;2023-02-28T17:17:43;55.53;;;21.33;;
51174;SDS011;37240;50.104;20.010;2023-02-28T17:22:45;47.90;;;18.08;;
51174;SDS011;37240;50.104;20.010;2023-02-28T17:27:46;61.55;;;22.60;;
51174;SDS011;37240;50.104;20.010;2023-02-28T17:32:46;67.60;;;24.33;;
51174;SDS011;37240;50.104;20.010;2023-02-28T17:37:47;64.72;;;23.92;;
51174;SDS011;37240;50.104;20.010;2023-02-28T17:42:47;71.95;;;22.17;;
51174;SDS011;37240;50.104;20.010;2023-02-28T17:47:48;102.43;;;37.13;;
51174;SDS011;37240;50.104;20.010;2023-02-28T17:52:49;67.88;;;25.75;;
51174;SDS011;37240;50.104;20.010;2023-02-28T17:57:50;59.00;;;21.15;;
51174;SDS011;37240;50.104;20.010;2023-02-28T18:02:50;64.53;;;24.08;;
51174;SDS011;37240;50.104;20.010;2023-02-28T18:07:51;82.13;;;24.48;;
51174;SDS011;37240;50.104;20.010;2023-02-28T18:12:52;75.55;;;26.52;;
51174;SDS011;37240;50.104;20.010;2023-02-28T18:17:53;80.95;;;27.48;;
51174;SDS011;37240;50.104;20.010;2023-02-28T18:22:53;80.10;;;28.27;;
51174;SDS011;37240;50.104;20.010;2023-02-28T18:27:54;92.20;;;32.67;;
51174;SDS011;37240;50.104;20.010;2023-02-28T18:32:55;97.15;;;32.38;;
51174;SDS011;37240;50.104;20.010;2023-02-28T18:37:56;105.72;;;35.45;;
51174;SDS011;37240;50.104;20.010;2023-02-28T18:42:57;100.15;;;31.90;;
51174;SDS011;37240;50.104;20.010;2023-02-28T18:47:57;141.55;;;49.63;;
51174;SDS011;37240;50.104;20.010;2023-02-28T18:52:58;109.25;;;36.97;;
51174;SDS011;37240;50.104;20.010;2023-02-28T18:57:59;84.05;;;30.17;;
51174;SDS011;37240;50.104;20.010;2023-02-28T19:02:59;83.22;;;28.48;;
51174;SDS011;37240;50.104;20.010;2023-02-28T19:08:00;87.47;;;29.95;;
51174;SDS011;37240;50.104;20.010;2023-02-28T19:13:01;94.30;;;31.92;;
51174;SDS011;37240;50.104;20.010;2023-02-28T19:18:01;85.10;;;29.55;;
51174;SDS011;37240;50.104;20.010;2023-02-28T19:23:02;85.40;;;29.75;;
51174;SDS011;37240;50.104;20.010;2023-02-28T19:28:02;95.07;;;32.33;;
51174;SDS011;37240;50.104;20.010;2023-02-28T19:33:03;95.43;;;33.15;;
51174;SDS011;37240;50.104;20.010;2023-02-28T19:38:04;111.80;;;36.22;;
51174;SDS011;37240;50.104;20.010;2023-02-28T19:43:04;100.95;;;35.72;;
51174;SDS011;37240;50.104;20.010;2023-02-28T19:48:05;96.20;;;33.38;;
51174;SDS011;37240;50.104;20.010;2023-02-28T19:53:05;94.03;;;31.77;;
51174;SDS011;37240;50.104;20.010;2023-02-28T19:58:06;107.57;;;36.83;;
51174;SDS011;37240;50.104;20.010;2023-02-28T20:03:06;123.47;;;41.40;;
51174;SDS011;37240;50.104;20.010;2023-02-28T20:08:07;134.40;;;43.47;;
51174;SDS011;37240;50.104;20.010;2023-02-28T20:13:08;165.68;;;47.42;;
51174;SDS011;37240;50.104;20.010;2023-02-28T20:18:08;135.70;;;48.15;;
51174;SDS011;37240;50.104;20.010;2023-02-28T20:23:09;162.85;;;49.20;;
51174;SDS011;37240;50.104;20.010;2023-02-28T20:28:09;155.73;;;46.38;;
51174;SDS011;37240;50.104;20.010;2023-02-28T20:33:10;116.93;;;36.63;;
51174;SDS011;37240;50.104;20.010;2023-02-28T20:38:10;118.82;;;41.30;;
51174;SDS011;37240;50.104;20.010;2023-02-28T20:43:11;110.20;;;38.25;;
51174;SDS011;37240;50.104;20.010;2023-02-28T20:48:12;114.75;;;42.50;;
51174;SDS011;37240;50.104;20.010;2023-02-28T20:53:12;114.43;;;41.78;;
51174;SDS011;37240;50.104;20.010;2023-02-28T20:58:13;146.82;;;52.38;;
51174;SDS011;37240;50.104;20.010;2023-02-28T21:03:13;124.32;;;44.83;;
51174;SDS011;37240;50.104;20.010;2023-02-28T21:08:14;111.05;;;40.95;;
51174;SDS011;37240;50.104;20.010;2023-02-28T21:13:15;106.75;;;37.25;;
51174;SDS011;37240;50.104;20.010;2023-02-28T21:18:15;140.98;;;47.22;;
51174;SDS011;37240;50.104;20.010;2023-02-28T21:23:16;150.73;;;48.75;;
51174;SDS011;37240;50.104;20.010;2023-02-28T21:28:16;165.95;;;53.67;;
51174;SDS011;37240;50.104;20.010;2023-02-28T21:33:17;142.50;;;49.97;;
51174;SDS011;37240;50.104;20.010;2023-02-28T21:38:17;143.57;;;45.83;;
51174;SDS011;37240;50.104;20.010;2023-02-28T21:43:18;130.52;;;44.63;;
51174;SDS011;37240;50.104;20.010;2023-02-28T21:48:18;157.15;;;47.53;;
51174;SDS011;37240;50.104;20.010;2023-02-28T21:53:19;124.22;;;41.45;;
51174;SDS011;37240;50.104;20.010;2023-02-28T21:58:19;116.63;;;38.78;;
51174;SDS011;37240;50.104;20.010;2023-02-28T22:03:20;107.25;;;37.88;;
51174;SDS011;37240;50.104;20.010;2023-02-28T22:08:21;121.40;;;36.38;;
51174;SDS011;37240;50.104;20.010;2023-02-28T22:13:21;123.85;;;40.55;;
51174;SDS011;37240;50.104;20.010;2023-02-28T22:18:22;126.47;;;41.90;;
51174;SDS011;37240;50.104;20.010;2023-02-28T22:23:22;130.48;;;42.85;;
51174;SDS011;37240;50.104;20.010;2023-02-28T22:28:23;115.75;;;40.40;;
51174;SDS011;37240;50.104;20.010;2023-02-28T22:33:24;128.30;;;43.80;;
51174;SDS011;37240;50.104;20.010;2023-02-28T22:38:25;146.32;;;43.70;;
51174;SDS011;37240;50.104;20.010;2023-02-28T22:43:26;129.20;;;45.08;;
51174;SDS011;37240;50.104;20.010;2023-02-28T22:48:27;136.10;;;43.05;;
51174;SDS011;37240;50.104;20.010;2023-02-28T22:53:28;128.43;;;42.17;;
51174;SDS011;37240;50.104;20.010;2023-02-28T22:58:30;130.40;;;43.15;;
51174;SDS011;37240;50.104;20.010;2023-02-28T23:03:31;125.30;;;40.08;;
51174;SDS011;37240;50.104;20.010;2023-02-28T23:08:31;126.05;;;40.88;;
51174;SDS011;37240;50.104;20.010;2023-02-28T23:13:32;127.45;;;39.10;;
51174;SDS011;37240;50.104;20.010;2023-02-28T23:18:32;116.05;;;40.05;;
51174;SDS011;37240;50.104;20.010;2023-02-28T23:23:33;120.18;;;40.20;;
51174;SDS011;37240;50.104;20.010;2023-02-28T23:28:34;124.25;;;42.08;;
51174;SDS011;37240;50.104;20.010;2023-02-28T23:33:34;124.43;;;43.13;;
51174;SDS011;37240;50.104;20.010;2023-02-28T23:38:36;118.03;;;39.17;;
51174;SDS011;37240;50.104;20.010;2023-02-28T23:43:37;97.97;;;37.40;;
51174;SDS011;37240;50.104;20.010;2023-02-28T23:48:39;103.25;;;34.63;;
51174;SDS011;37240;50.104;20.010;2023-02-28T23:53:40;98.15;;;35.72;;
51174;SDS011;37240;50.104;20.010;2023-02-28T23:58:44;99.05;;;35.92;;
